sensor_id;sensor_type;location;lat;lon;timestamp;temperature;humidity
14277;DHT22;7222;57.346;12.150;2023-02-28T00:00:31;-0.80;99.90
14277;DHT22;7222;57.346;12.150;2023-02-28T00:02:58;-0.80;99.90
14277;DHT22;7222;57.346;12.150;2023-02-28T00:05:27;-0.80;99.90
14277;DHT22;7222;57.346;12.150;2023-02-28T00:07:54;-0.90;99.90
14277;DHT22;7222;57.346;12.150;2023-02-28T00:10:26;-0.90;99.90
14277;DHT22;7222;57.346;12.150;2023-02-28T00:12:55;-1.00;99.90
14277;DHT22;7222;57.346;12.150;2023-02-28T00:15:24;-1.00;99.90
14277;DHT22;7222;57.346;12.150;2023-02-28T00:17:51;-1.10;99.90
14277;DHT22;7222;57.346;12.150;2023-02-28T00:20:19;-1.00;99.90
14277;DHT22;7222;57.346;12.150;2023-02-28T00:22:48;-1.10;99.90
14277;DHT22;7222;57.346;12.150;2023-02-28T00:25:18;-1.10;99.90
14277;DHT22;7222;57.346;12.150;2023-02-28T00:27:46;-1.20;99.90
14277;DHT22;7222;57.346;12.150;2023-02-28T00:30:14;-1.20;99.90
14277;DHT22;7222;57.346;12.150;2023-02-28T00:32:44;-1.30;99.90
14277;DHT22;7222;57.346;12.150;2023-02-28T00:35:11;-1.30;99.90
14277;DHT22;7222;57.346;12.150;2023-02-28T00:37:38;-1.20;99.90
14277;DHT22;7222;57.346;12.150;2023-02-28T00:40:06;-1.30;99.90
14277;DHT22;7222;57.346;12.150;2023-02-28T00:42:35;-1.30;99.90
14277;DHT22;7222;57.346;12.150;2023-02-28T00:45:02;-1.30;99.90
14277;DHT22;7222;57.346;12.150;2023-02-28T00:47:31;-1.40;99.90
14277;DHT22;7222;57.346;12.150;2023-02-28T00:50:00;-1.40;99.90
14277;DHT22;7222;57.346;12.150;2023-02-28T00:52:27;-1.30;99.90
14277;DHT22;7222;57.346;12.150;2023-02-28T00:54:54;-1.50;99.90
14277;DHT22;7222;57.346;12.150;2023-02-28T00:57:21;-1.50;99.90
14277;DHT22;7222;57.346;12.150;2023-02-28T00:59:48;-1.60;99.90
14277;DHT22;7222;57.346;12.150;2023-02-28T01:02:15;-1.60;99.90
14277;DHT22;7222;57.346;12.150;2023-02-28T01:04:43;-1.70;99.90
14277;DHT22;7222;57.346;12.150;2023-02-28T01:07:11;-1.60;99.90
14277;DHT22;7222;57.346;12.150;2023-02-28T01:09:40;-1.60;99.90
14277;DHT22;7222;57.346;12.150;2023-02-28T01:12:07;-1.80;99.90
14277;DHT22;7222;57.346;12.150;2023-02-28T01:14:35;-1.80;99.90
14277;DHT22;7222;57.346;12.150;2023-02-28T01:17:02;-1.70;99.90
14277;DHT22;7222;57.346;12.150;2023-02-28T01:19:29;-1.80;99.90
14277;DHT22;7222;57.346;12.150;2023-02-28T01:21:55;-1.60;99.90
14277;DHT22;7222;57.346;12.150;2023-02-28T01:24:24;-1.60;99.90
14277;DHT22;7222;57.346;12.150;2023-02-28T01:26:50;-1.70;99.90
14277;DHT22;7222;57.346;12.150;2023-02-28T01:29:17;-1.60;99.90
14277;DHT22;7222;57.346;12.150;2023-02-28T01:31:44;-1.70;99.90
14277;DHT22;7222;57.346;12.150;2023-02-28T01:34:11;-1.70;99.90
14277;DHT22;7222;57.346;12.150;2023-02-28T01:36:38;-1.90;99.90
14277;DHT22;7222;57.346;12.150;2023-02-28T01:39:06;-2.00;99.90
14277;DHT22;7222;57.346;12.150;2023-02-28T01:41:34;-1.90;99.90
14277;DHT22;7222;57.346;12.150;2023-02-28T01:44:04;-1.80;99.90
14277;DHT22;7222;57.346;12.150;2023-02-28T01:46:32;-1.80;99.90
14277;DHT22;7222;57.346;12.150;2023-02-28T01:49:05;-1.70;99.90
14277;DHT22;7222;57.346;12.150;2023-02-28T01:51:37;-1.80;99.90
14277;DHT22;7222;57.346;12.150;2023-02-28T01:54:14;-2.00;99.90
14277;DHT22;7222;57.346;12.150;2023-02-28T01:56:47;-2.00;99.90
14277;DHT22;7222;57.346;12.150;2023-02-28T01:59:22;-2.00;99.90
14277;DHT22;7222;57.346;12.150;2023-02-28T02:01:49;-2.10;99.90
14277;DHT22;7222;57.346;12.150;2023-02-28T02:04:17;-2.10;99.90
14277;DHT22;7222;57.346;12.150;2023-02-28T02:06:46;-2.10;99.90
14277;DHT22;7222;57.346;12.150;2023-02-28T02:09:14;-2.00;99.90
14277;DHT22;7222;57.346;12.150;2023-02-28T02:11:42;-2.10;99.90
14277;DHT22;7222;57.346;12.150;2023-02-28T02:14:35;-2.10;99.90
14277;DHT22;7222;57.346;12.150;2023-02-28T02:17:15;-2.10;99.90
14277;DHT22;7222;57.346;12.150;2023-02-28T02:23:13;-2.20;99.90
14277;DHT22;7222;57.346;12.150;2023-02-28T02:25:49;-2.30;99.90
14277;DHT22;7222;57.346;12.150;2023-02-28T02:28:51;-2.30;99.90
14277;DHT22;7222;57.346;12.150;2023-02-28T02:31:39;-2.30;99.90
14277;DHT22;7222;57.346;12.150;2023-02-28T02:37:29;-2.50;99.90
14277;DHT22;7222;57.346;12.150;2023-02-28T02:40:03;-2.40;99.90
14277;DHT22;7222;57.346;12.150;2023-02-28T02:42:39;-2.40;99.90
14277;DHT22;7222;57.346;12.150;2023-02-28T02:45:10;-2.50;99.90
14277;DHT22;7222;57.346;12.150;2023-02-28T02:47:39;-2.40;99.90
14277;DHT22;7222;57.346;12.150;2023-02-28T02:50:11;-2.50;99.90
14277;DHT22;7222;57.346;12.150;2023-02-28T02:52:42;-2.40;99.90
14277;DHT22;7222;57.346;12.150;2023-02-28T02:55:14;-2.30;99.90
14277;DHT22;7222;57.346;12.150;2023-02-28T02:57:45;-2.50;99.90
14277;DHT22;7222;57.346;12.150;2023-02-28T03:00:15;-2.60;99.90
14277;DHT22;7222;57.346;12.150;2023-02-28T03:02:45;-2.50;99.90
14277;DHT22;7222;57.346;12.150;2023-02-28T03:05:17;-2.30;99.90
14277;DHT22;7222;57.346;12.150;2023-02-28T03:07:47;-2.20;99.90
14277;DHT22;7222;57.346;12.150;2023-02-28T03:10:31;-2.10;99.90
14277;DHT22;7222;57.346;12.150;2023-02-28T03:13:08;-2.10;99.90
14277;DHT22;7222;57.346;12.150;2023-02-28T03:15:42;-2.20;99.90
14277;DHT22;7222;57.346;12.150;2023-02-28T03:18:16;-2.30;99.90
14277;DHT22;7222;57.346;12.150;2023-02-28T03:20:50;-2.40;99.90
14277;DHT22;7222;57.346;12.150;2023-02-28T03:23:24;-2.50;99.90
14277;DHT22;7222;57.346;12.150;2023-02-28T03:25:56;-2.50;99.90
14277;DHT22;7222;57.346;12.150;2023-02-28T03:28:31;-2.50;99.90
14277;DHT22;7222;57.346;12.150;2023-02-28T03:31:08;-2.40;99.90
14277;DHT22;7222;57.346;12.150;2023-02-28T03:33:42;-2.50;99.90
14277;DHT22;7222;57.346;12.150;2023-02-28T03:36:14;-2.50;99.90
14277;DHT22;7222;57.346;12.150;2023-02-28T03:38:47;-2.50;99.90
14277;DHT22;7222;57.346;12.150;2023-02-28T03:41:17;-2.40;99.90
14277;DHT22;7222;57.346;12.150;2023-02-28T03:43:54;-2.50;99.90
14277;DHT22;7222;57.346;12.150;2023-02-28T03:46:24;-2.50;99.90
14277;DHT22;7222;57.346;12.150;2023-02-28T03:48:56;-2.60;99.90
14277;DHT22;7222;57.346;12.150;2023-02-28T03:51:27;-2.70;99.90
14277;DHT22;7222;57.346;12.150;2023-02-28T03:53:59;-2.70;99.90
14277;DHT22;7222;57.346;12.150;2023-02-28T03:56:33;-2.80;99.90
14277;DHT22;7222;57.346;12.150;2023-02-28T03:59:06;-3.00;99.90
14277;DHT22;7222;57.346;12.150;2023-02-28T04:01:37;-2.90;99.90
14277;DHT22;7222;57.346;12.150;2023-02-28T04:04:07;-3.10;99.90
14277;DHT22;7222;57.346;12.150;2023-02-28T04:06:34;-3.10;99.90
14277;DHT22;7222;57.346;12.150;2023-02-28T04:09:03;-3.10;99.90
14277;DHT22;7222;57.346;12.150;2023-02-28T04:11:34;-3.00;99.90
14277;DHT22;7222;57.346;12.150;2023-02-28T04:14:01;-3.00;99.90
14277;DHT22;7222;57.346;12.150;2023-02-28T04:16:29;-3.10;99.90
14277;DHT22;7222;57.346;12.150;2023-02-28T04:18:56;-3.10;99.90
14277;DHT22;7222;57.346;12.150;2023-02-28T04:21:27;-3.20;99.90
14277;DHT22;7222;57.346;12.150;2023-02-28T04:23:54;-3.20;99.90
14277;DHT22;7222;57.346;12.150;2023-02-28T04:26:23;-3.10;99.90
14277;DHT22;7222;57.346;12.150;2023-02-28T04:28:49;-2.90;99.90
14277;DHT22;7222;57.346;12.150;2023-02-28T04:31:16;-3.00;99.90
14277;DHT22;7222;57.346;12.150;2023-02-28T04:33:43;-2.90;99.90
14277;DHT22;7222;57.346;12.150;2023-02-28T04:36:10;-3.00;99.90
14277;DHT22;7222;57.346;12.150;2023-02-28T04:38:39;-3.10;99.90
14277;DHT22;7222;57.346;12.150;2023-02-28T04:41:06;-2.90;99.90
14277;DHT22;7222;57.346;12.150;2023-02-28T04:43:34;-2.80;99.90
14277;DHT22;7222;57.346;12.150;2023-02-28T04:46:03;-2.90;99.90
14277;DHT22;7222;57.346;12.150;2023-02-28T04:48:32;-3.00;99.90
14277;DHT22;7222;57.346;12.150;2023-02-28T04:51:00;-3.20;99.90
14277;DHT22;7222;57.346;12.150;2023-02-28T04:53:28;-3.20;99.90
14277;DHT22;7222;57.346;12.150;2023-02-28T04:55:55;-3.10;99.90
14277;DHT22;7222;57.346;12.150;2023-02-28T04:58:22;-3.20;99.90
14277;DHT22;7222;57.346;12.150;2023-02-28T05:00:51;-3.20;99.90
14277;DHT22;7222;57.346;12.150;2023-02-28T05:03:18;-3.20;99.90
14277;DHT22;7222;57.346;12.150;2023-02-28T05:05:46;-3.30;99.90
14277;DHT22;7222;57.346;12.150;2023-02-28T05:08:13;-3.30;99.90
14277;DHT22;7222;57.346;12.150;2023-02-28T05:10:40;-3.40;99.90
14277;DHT22;7222;57.346;12.150;2023-02-28T05:13:10;-3.50;99.90
14277;DHT22;7222;57.346;12.150;2023-02-28T05:15:38;-3.60;99.90
14277;DHT22;7222;57.346;12.150;2023-02-28T05:18:08;-3.60;99.90
14277;DHT22;7222;57.346;12.150;2023-02-28T05:20:35;-3.60;99.90
14277;DHT22;7222;57.346;12.150;2023-02-28T05:23:03;-3.50;99.90
14277;DHT22;7222;57.346;12.150;2023-02-28T05:25:30;-3.60;99.90
14277;DHT22;7222;57.346;12.150;2023-02-28T05:27:56;-3.60;99.90
14277;DHT22;7222;57.346;12.150;2023-02-28T05:30:23;-3.60;99.90
14277;DHT22;7222;57.346;12.150;2023-02-28T05:32:51;-3.60;99.90
14277;DHT22;7222;57.346;12.150;2023-02-28T05:35:19;-3.70;99.90
14277;DHT22;7222;57.346;12.150;2023-02-28T05:37:46;-3.80;99.90
14277;DHT22;7222;57.346;12.150;2023-02-28T05:40:13;-3.80;99.90
14277;DHT22;7222;57.346;12.150;2023-02-28T05:42:41;-3.70;99.90
14277;DHT22;7222;57.346;12.150;2023-02-28T05:45:09;-3.90;99.90
14277;DHT22;7222;57.346;12.150;2023-02-28T05:47:36;-4.00;99.90
14277;DHT22;7222;57.346;12.150;2023-02-28T05:50:04;-3.90;99.90
14277;DHT22;7222;57.346;12.150;2023-02-28T05:52:32;-4.00;99.90
14277;DHT22;7222;57.346;12.150;2023-02-28T05:54:59;-4.00;99.90
14277;DHT22;7222;57.346;12.150;2023-02-28T05:57:27;-3.90;99.90
14277;DHT22;7222;57.346;12.150;2023-02-28T05:59:54;-3.90;99.90
14277;DHT22;7222;57.346;12.150;2023-02-28T06:02:20;-3.90;99.90
14277;DHT22;7222;57.346;12.150;2023-02-28T06:04:47;-3.90;99.90
14277;DHT22;7222;57.346;12.150;2023-02-28T06:07:14;-3.80;99.90
14277;DHT22;7222;57.346;12.150;2023-02-28T06:09:44;-3.80;99.90
14277;DHT22;7222;57.346;12.150;2023-02-28T06:12:11;-3.80;99.90
14277;DHT22;7222;57.346;12.150;2023-02-28T06:14:38;-3.80;99.90
14277;DHT22;7222;57.346;12.150;2023-02-28T06:17:05;-3.60;99.90
14277;DHT22;7222;57.346;12.150;2023-02-28T06:19:31;-3.60;99.90
14277;DHT22;7222;57.346;12.150;2023-02-28T06:21:59;-3.70;99.90
14277;DHT22;7222;57.346;12.150;2023-02-28T06:24:26;-3.60;99.90
14277;DHT22;7222;57.346;12.150;2023-02-28T06:26:55;-3.60;99.90
14277;DHT22;7222;57.346;12.150;2023-02-28T06:29:24;-3.40;99.90
14277;DHT22;7222;57.346;12.150;2023-02-28T06:31:52;-3.30;99.90
14277;DHT22;7222;57.346;12.150;2023-02-28T06:34:18;-3.40;99.90
14277;DHT22;7222;57.346;12.150;2023-02-28T06:36:45;-3.50;99.90
14277;DHT22;7222;57.346;12.150;2023-02-28T06:39:12;-3.60;99.90
14277;DHT22;7222;57.346;12.150;2023-02-28T06:41:39;-3.50;99.90
14277;DHT22;7222;57.346;12.150;2023-02-28T06:44:11;-3.50;99.90
14277;DHT22;7222;57.346;12.150;2023-02-28T06:46:39;-3.50;99.90
14277;DHT22;7222;57.346;12.150;2023-02-28T06:49:06;-3.30;99.90
14277;DHT22;7222;57.346;12.150;2023-02-28T06:51:35;-3.00;99.90
14277;DHT22;7222;57.346;12.150;2023-02-28T06:54:03;-2.80;99.90
14277;DHT22;7222;57.346;12.150;2023-02-28T06:56:30;-2.60;99.90
14277;DHT22;7222;57.346;12.150;2023-02-28T06:58:58;-2.60;99.90
14277;DHT22;7222;57.346;12.150;2023-02-28T07:01:26;-2.40;99.90
14277;DHT22;7222;57.346;12.150;2023-02-28T07:03:54;-2.40;99.90
14277;DHT22;7222;57.346;12.150;2023-02-28T07:06:21;-2.40;99.90
14277;DHT22;7222;57.346;12.150;2023-02-28T07:08:49;-2.20;99.90
14277;DHT22;7222;57.346;12.150;2023-02-28T07:11:16;-2.30;99.90
14277;DHT22;7222;57.346;12.150;2023-02-28T07:13:43;-2.10;99.90
14277;DHT22;7222;57.346;12.150;2023-02-28T07:16:11;-2.10;99.90
14277;DHT22;7222;57.346;12.150;2023-02-28T07:18:40;-2.00;99.90
14277;DHT22;7222;57.346;12.150;2023-02-28T07:21:09;-2.00;99.90
14277;DHT22;7222;57.346;12.150;2023-02-28T07:23:37;-1.80;99.90
14277;DHT22;7222;57.346;12.150;2023-02-28T07:26:05;-1.80;99.90
14277;DHT22;7222;57.346;12.150;2023-02-28T07:28:32;-1.60;99.90
14277;DHT22;7222;57.346;12.150;2023-02-28T07:31:04;-1.60;99.90
14277;DHT22;7222;57.346;12.150;2023-02-28T07:33:31;-1.60;99.90
14277;DHT22;7222;57.346;12.150;2023-02-28T07:36:05;-1.50;99.90
14277;DHT22;7222;57.346;12.150;2023-02-28T07:38:33;-1.60;99.90
14277;DHT22;7222;57.346;12.150;2023-02-28T07:41:01;-1.40;99.90
14277;DHT22;7222;57.346;12.150;2023-02-28T07:43:30;-1.40;99.90
14277;DHT22;7222;57.346;12.150;2023-02-28T07:46:02;-1.30;99.90
14277;DHT22;7222;57.346;12.150;2023-02-28T07:48:30;-1.20;99.90
14277;DHT22;7222;57.346;12.150;2023-02-28T07:50:58;-1.30;99.90
14277;DHT22;7222;57.346;12.150;2023-02-28T07:53:27;-1.30;99.90
14277;DHT22;7222;57.346;12.150;2023-02-28T07:55:55;-1.10;99.90
14277;DHT22;7222;57.346;12.150;2023-02-28T07:58:22;-1.10;99.90
14277;DHT22;7222;57.346;12.150;2023-02-28T08:00:49;-1.00;99.90
14277;DHT22;7222;57.346;12.150;2023-02-28T08:03:18;-1.10;99.90
14277;DHT22;7222;57.346;12.150;2023-02-28T08:05:45;-0.90;99.90
14277;DHT22;7222;57.346;12.150;2023-02-28T08:08:13;-0.70;99.90
14277;DHT22;7222;57.346;12.150;2023-02-28T08:10:42;-0.60;99.90
14277;DHT22;7222;57.346;12.150;2023-02-28T08:13:09;-0.60;99.90
14277;DHT22;7222;57.346;12.150;2023-02-28T08:15:36;-0.50;99.90
14277;DHT22;7222;57.346;12.150;2023-02-28T08:18:04;-0.60;99.90
14277;DHT22;7222;57.346;12.150;2023-02-28T08:20:30;-0.50;99.90
14277;DHT22;7222;57.346;12.150;2023-02-28T08:22:57;-0.30;99.90
14277;DHT22;7222;57.346;12.150;2023-02-28T08:25:25;-0.20;99.90
14277;DHT22;7222;57.346;12.150;2023-02-28T08:27:53;0.00;99.90
14277;DHT22;7222;57.346;12.150;2023-02-28T08:30:20;0.10;99.90
14277;DHT22;7222;57.346;12.150;2023-02-28T08:32:48;0.20;99.90
14277;DHT22;7222;57.346;12.150;2023-02-28T08:35:15;0.10;99.90
14277;DHT22;7222;57.346;12.150;2023-02-28T08:37:42;0.20;99.90
14277;DHT22;7222;57.346;12.150;2023-02-28T08:40:10;0.10;99.90
14277;DHT22;7222;57.346;12.150;2023-02-28T08:42:39;0.10;99.90
14277;DHT22;7222;57.346;12.150;2023-02-28T08:45:09;0.10;99.90
14277;DHT22;7222;57.346;12.150;2023-02-28T08:47:35;0.20;99.90
14277;DHT22;7222;57.346;12.150;2023-02-28T08:50:03;0.20;99.90
14277;DHT22;7222;57.346;12.150;2023-02-28T08:52:30;0.30;99.90
14277;DHT22;7222;57.346;12.150;2023-02-28T08:54:57;0.40;99.90
14277;DHT22;7222;57.346;12.150;2023-02-28T08:57:24;0.40;99.90
14277;DHT22;7222;57.346;12.150;2023-02-28T08:59:52;0.40;99.90
14277;DHT22;7222;57.346;12.150;2023-02-28T09:02:21;0.70;99.90
14277;DHT22;7222;57.346;12.150;2023-02-28T09:04:47;0.70;99.90
14277;DHT22;7222;57.346;12.150;2023-02-28T09:07:14;0.70;99.90
14277;DHT22;7222;57.346;12.150;2023-02-28T09:09:41;0.70;99.90
14277;DHT22;7222;57.346;12.150;2023-02-28T09:12:19;0.40;99.90
14277;DHT22;7222;57.346;12.150;2023-02-28T09:14:46;0.50;99.90
14277;DHT22;7222;57.346;12.150;2023-02-28T09:17:13;0.50;99.90
14277;DHT22;7222;57.346;12.150;2023-02-28T09:19:41;0.50;99.90
14277;DHT22;7222;57.346;12.150;2023-02-28T09:22:09;0.70;99.90
14277;DHT22;7222;57.346;12.150;2023-02-28T09:24:36;0.80;99.90
14277;DHT22;7222;57.346;12.150;2023-02-28T09:27:04;1.00;99.90
14277;DHT22;7222;57.346;12.150;2023-02-28T09:29:32;1.40;99.90
14277;DHT22;7222;57.346;12.150;2023-02-28T09:31:59;1.30;99.90
14277;DHT22;7222;57.346;12.150;2023-02-28T09:34:27;1.70;99.90
14277;DHT22;7222;57.346;12.150;2023-02-28T09:36:57;1.80;99.90
14277;DHT22;7222;57.346;12.150;2023-02-28T09:39:24;2.10;99.90
14277;DHT22;7222;57.346;12.150;2023-02-28T09:41:54;2.20;99.90
14277;DHT22;7222;57.346;12.150;2023-02-28T09:44:26;2.50;99.90
14277;DHT22;7222;57.346;12.150;2023-02-28T09:46:57;2.90;99.90
14277;DHT22;7222;57.346;12.150;2023-02-28T09:49:32;2.90;99.90
14277;DHT22;7222;57.346;12.150;2023-02-28T09:52:05;2.80;99.90
14277;DHT22;7222;57.346;12.150;2023-02-28T09:54:35;3.00;99.90
14277;DHT22;7222;57.346;12.150;2023-02-28T09:57:07;2.90;99.90
14277;DHT22;7222;57.346;12.150;2023-02-28T09:59:51;2.60;99.90
14277;DHT22;7222;57.346;12.150;2023-02-28T10:05:33;2.80;99.90
14277;DHT22;7222;57.346;12.150;2023-02-28T10:08:08;2.90;99.90
14277;DHT22;7222;57.346;12.150;2023-02-28T10:10:39;3.00;99.90
14277;DHT22;7222;57.346;12.150;2023-02-28T10:13:19;3.60;99.90
14277;DHT22;7222;57.346;12.150;2023-02-28T10:15:52;3.70;99.90
14277;DHT22;7222;57.346;12.150;2023-02-28T10:18:23;3.60;99.90
14277;DHT22;7222;57.346;12.150;2023-02-28T10:20:51;3.80;99.90
14277;DHT22;7222;57.346;12.150;2023-02-28T10:23:25;4.00;99.90
14277;DHT22;7222;57.346;12.150;2023-02-28T10:25:57;4.30;99.90
14277;DHT22;7222;57.346;12.150;2023-02-28T10:28:26;4.10;99.90
14277;DHT22;7222;57.346;12.150;2023-02-28T10:30:56;4.90;99.90
14277;DHT22;7222;57.346;12.150;2023-02-28T10:33:25;5.00;99.90
14277;DHT22;7222;57.346;12.150;2023-02-28T10:35:53;5.00;99.90
14277;DHT22;7222;57.346;12.150;2023-02-28T10:38:23;4.90;99.90
14277;DHT22;7222;57.346;12.150;2023-02-28T10:40:50;5.00;99.90
14277;DHT22;7222;57.346;12.150;2023-02-28T10:43:22;5.10;99.90
14277;DHT22;7222;57.346;12.150;2023-02-28T10:45:58;5.20;99.90
14277;DHT22;7222;57.346;12.150;2023-02-28T10:48:38;5.20;99.90
14277;DHT22;7222;57.346;12.150;2023-02-28T10:51:08;5.20;99.90
14277;DHT22;7222;57.346;12.150;2023-02-28T10:53:48;5.20;99.90
14277;DHT22;7222;57.346;12.150;2023-02-28T10:56:18;5.60;99.90
14277;DHT22;7222;57.346;12.150;2023-02-28T10:58:52;5.60;99.90
14277;DHT22;7222;57.346;12.150;2023-02-28T11:01:21;5.70;99.90
14277;DHT22;7222;57.346;12.150;2023-02-28T11:03:53;5.90;99.90
14277;DHT22;7222;57.346;12.150;2023-02-28T11:06:21;6.30;99.90
14277;DHT22;7222;57.346;12.150;2023-02-28T11:08:53;6.60;99.90
14277;DHT22;7222;57.346;12.150;2023-02-28T11:11:22;7.70;99.90
14277;DHT22;7222;57.346;12.150;2023-02-28T11:13:53;9.20;99.90
14277;DHT22;7222;57.346;12.150;2023-02-28T11:16:21;9.20;99.90
14277;DHT22;7222;57.346;12.150;2023-02-28T11:18:50;8.50;99.90
14277;DHT22;7222;57.346;12.150;2023-02-28T11:21:23;9.50;99.90
14277;DHT22;7222;57.346;12.150;2023-02-28T11:23:57;12.60;99.90
14277;DHT22;7222;57.346;12.150;2023-02-28T11:26:39;12.80;99.90
14277;DHT22;7222;57.346;12.150;2023-02-28T11:29:12;16.10;99.90
14277;DHT22;7222;57.346;12.150;2023-02-28T11:31:40;16.70;99.90
14277;DHT22;7222;57.346;12.150;2023-02-28T11:34:23;17.10;99.90
14277;DHT22;7222;57.346;12.150;2023-02-28T11:36:52;15.60;99.90
14277;DHT22;7222;57.346;12.150;2023-02-28T11:39:21;15.40;99.90
14277;DHT22;7222;57.346;12.150;2023-02-28T11:42:11;14.70;99.90
14277;DHT22;7222;57.346;12.150;2023-02-28T11:44:51;15.40;99.90
14277;DHT22;7222;57.346;12.150;2023-02-28T11:47:31;15.10;99.90
14277;DHT22;7222;57.346;12.150;2023-02-28T11:50:13;13.60;99.90
14277;DHT22;7222;57.346;12.150;2023-02-28T11:52:47;12.40;99.90
14277;DHT22;7222;57.346;12.150;2023-02-28T11:55:20;11.90;99.90
14277;DHT22;7222;57.346;12.150;2023-02-28T11:58:14;11.20;99.90
14277;DHT22;7222;57.346;12.150;2023-02-28T12:00:57;11.00;99.90
14277;DHT22;7222;57.346;12.150;2023-02-28T12:03:31;10.60;99.90
14277;DHT22;7222;57.346;12.150;2023-02-28T12:06:14;10.10;99.90
14277;DHT22;7222;57.346;12.150;2023-02-28T12:08:52;9.90;99.90
14277;DHT22;7222;57.346;12.150;2023-02-28T12:11:32;8.90;99.90
14277;DHT22;7222;57.346;12.150;2023-02-28T12:14:31;8.90;99.90
14277;DHT22;7222;57.346;12.150;2023-02-28T12:17:15;9.40;99.90
14277;DHT22;7222;57.346;12.150;2023-02-28T12:19:50;9.60;99.90
14277;DHT22;7222;57.346;12.150;2023-02-28T12:22:30;9.70;99.90
14277;DHT22;7222;57.346;12.150;2023-02-28T12:28:17;8.20;99.90
14277;DHT22;7222;57.346;12.150;2023-02-28T12:30:52;7.90;99.90
14277;DHT22;7222;57.346;12.150;2023-02-28T12:33:24;7.90;99.90
14277;DHT22;7222;57.346;12.150;2023-02-28T12:35:56;7.70;99.90
14277;DHT22;7222;57.346;12.150;2023-02-28T12:38:26;7.60;99.90
14277;DHT22;7222;57.346;12.150;2023-02-28T12:40:58;7.70;99.90
14277;DHT22;7222;57.346;12.150;2023-02-28T12:43:32;8.00;99.90
14277;DHT22;7222;57.346;12.150;2023-02-28T12:46:03;8.10;99.90
14277;DHT22;7222;57.346;12.150;2023-02-28T12:48:38;8.50;99.90
14277;DHT22;7222;57.346;12.150;2023-02-28T12:51:07;9.30;99.90
14277;DHT22;7222;57.346;12.150;2023-02-28T12:53:42;9.30;99.90
14277;DHT22;7222;57.346;12.150;2023-02-28T12:56:16;9.20;99.90
14277;DHT22;7222;57.346;12.150;2023-02-28T12:58:49;8.20;99.90
14277;DHT22;7222;57.346;12.150;2023-02-28T13:01:50;7.60;99.90
14277;DHT22;7222;57.346;12.150;2023-02-28T13:04:38;8.40;99.90
14277;DHT22;7222;57.346;12.150;2023-02-28T13:07:20;8.80;99.90
14277;DHT22;7222;57.346;12.150;2023-02-28T13:09:55;8.90;99.90
14277;DHT22;7222;57.346;12.150;2023-02-28T13:12:23;8.40;99.90
14277;DHT22;7222;57.346;12.150;2023-02-28T13:15:04;7.80;99.90
14277;DHT22;7222;57.346;12.150;2023-02-28T13:17:31;7.70;99.90
14277;DHT22;7222;57.346;12.150;2023-02-28T13:19:59;7.50;99.90
14277;DHT22;7222;57.346;12.150;2023-02-28T13:22:41;7.90;99.90
14277;DHT22;7222;57.346;12.150;2023-02-28T13:28:57;7.20;99.90
14277;DHT22;7222;57.346;12.150;2023-02-28T13:31:25;7.90;99.90
14277;DHT22;7222;57.346;12.150;2023-02-28T13:34:12;8.10;99.90
14277;DHT22;7222;57.346;12.150;2023-02-28T13:36:40;8.60;99.90
14277;DHT22;7222;57.346;12.150;2023-02-28T13:42:32;7.90;99.90
14277;DHT22;7222;57.346;12.150;2023-02-28T13:45:19;7.80;99.90
14277;DHT22;7222;57.346;12.150;2023-02-28T13:47:58;8.60;99.90
14277;DHT22;7222;57.346;12.150;2023-02-28T13:50:32;9.30;99.90
14277;DHT22;7222;57.346;12.150;2023-02-28T13:56:09;11.70;99.90
14277;DHT22;7222;57.346;12.150;2023-02-28T13:58:52;11.60;99.90
14277;DHT22;7222;57.346;12.150;2023-02-28T14:01:35;11.20;99.90
14277;DHT22;7222;57.346;12.150;2023-02-28T14:04:43;11.30;99.90
14277;DHT22;7222;57.346;12.150;2023-02-28T14:07:21;11.00;99.90
14277;DHT22;7222;57.346;12.150;2023-02-28T14:09:56;10.20;99.90
14277;DHT22;7222;57.346;12.150;2023-02-28T14:12:52;9.20;99.90
14277;DHT22;7222;57.346;12.150;2023-02-28T14:15:33;8.30;99.90
14277;DHT22;7222;57.346;12.150;2023-02-28T14:18:06;7.60;99.90
14277;DHT22;7222;57.346;12.150;2023-02-28T14:20:42;7.00;99.90
14277;DHT22;7222;57.346;12.150;2023-02-28T14:23:16;7.20;99.90
14277;DHT22;7222;57.346;12.150;2023-02-28T14:25:53;8.10;99.90
14277;DHT22;7222;57.346;12.150;2023-02-28T14:28:31;8.30;99.90
14277;DHT22;7222;57.346;12.150;2023-02-28T14:31:07;8.70;99.90
14277;DHT22;7222;57.346;12.150;2023-02-28T14:33:48;7.80;99.90
14277;DHT22;7222;57.346;12.150;2023-02-28T14:36:25;8.20;99.90
14277;DHT22;7222;57.346;12.150;2023-02-28T14:38:56;7.80;99.90
14277;DHT22;7222;57.346;12.150;2023-02-28T14:41:28;6.70;99.90
14277;DHT22;7222;57.346;12.150;2023-02-28T14:43:57;6.00;99.90
14277;DHT22;7222;57.346;12.150;2023-02-28T14:46:28;6.10;99.90
14277;DHT22;7222;57.346;12.150;2023-02-28T14:48:56;5.50;99.90
14277;DHT22;7222;57.346;12.150;2023-02-28T14:51:25;6.60;99.90
14277;DHT22;7222;57.346;12.150;2023-02-28T14:53:57;5.90;99.90
14277;DHT22;7222;57.346;12.150;2023-02-28T14:56:27;6.50;99.90
14277;DHT22;7222;57.346;12.150;2023-02-28T14:58:56;7.30;99.90
14277;DHT22;7222;57.346;12.150;2023-02-28T15:01:24;6.90;99.90
14277;DHT22;7222;57.346;12.150;2023-02-28T15:04:01;6.60;99.90
14277;DHT22;7222;57.346;12.150;2023-02-28T15:06:30;6.60;99.90
14277;DHT22;7222;57.346;12.150;2023-02-28T15:09:09;5.50;99.90
14277;DHT22;7222;57.346;12.150;2023-02-28T15:11:36;5.60;99.90
14277;DHT22;7222;57.346;12.150;2023-02-28T15:14:04;6.20;99.90
14277;DHT22;7222;57.346;12.150;2023-02-28T15:16:33;6.00;99.90
14277;DHT22;7222;57.346;12.150;2023-02-28T15:19:03;6.20;99.90
14277;DHT22;7222;57.346;12.150;2023-02-28T15:21:36;6.60;99.90
14277;DHT22;7222;57.346;12.150;2023-02-28T15:24:05;6.10;99.90
14277;DHT22;7222;57.346;12.150;2023-02-28T15:26:38;5.20;99.90
14277;DHT22;7222;57.346;12.150;2023-02-28T15:29:07;5.50;99.90
14277;DHT22;7222;57.346;12.150;2023-02-28T15:31:39;6.20;99.90
14277;DHT22;7222;57.346;12.150;2023-02-28T15:34:12;6.40;99.90
14277;DHT22;7222;57.346;12.150;2023-02-28T15:36:43;5.90;99.90
14277;DHT22;7222;57.346;12.150;2023-02-28T15:39:19;6.30;99.90
14277;DHT22;7222;57.346;12.150;2023-02-28T15:41:47;6.60;99.90
14277;DHT22;7222;57.346;12.150;2023-02-28T15:44:23;6.60;99.90
14277;DHT22;7222;57.346;12.150;2023-02-28T15:46:58;6.70;99.90
14277;DHT22;7222;57.346;12.150;2023-02-28T15:49:27;6.70;99.90
14277;DHT22;7222;57.346;12.150;2023-02-28T15:51:59;6.70;99.90
14277;DHT22;7222;57.346;12.150;2023-02-28T15:54:29;6.60;99.90
14277;DHT22;7222;57.346;12.150;2023-02-28T15:57:00;6.40;99.90
14277;DHT22;7222;57.346;12.150;2023-02-28T15:59:29;6.20;99.90
14277;DHT22;7222;57.346;12.150;2023-02-28T16:02:19;6.20;99.90
14277;DHT22;7222;57.346;12.150;2023-02-28T16:04:57;6.30;99.90
14277;DHT22;7222;57.346;12.150;2023-02-28T16:07:27;6.10;99.90
14277;DHT22;7222;57.346;12.150;2023-02-28T16:09:54;6.20;99.90
14277;DHT22;7222;57.346;12.150;2023-02-28T16:12:26;6.20;99.90
14277;DHT22;7222;57.346;12.150;2023-02-28T16:14:54;6.20;99.90
14277;DHT22;7222;57.346;12.150;2023-02-28T16:17:24;6.10;99.90
14277;DHT22;7222;57.346;12.150;2023-02-28T16:19:51;6.00;99.90
14277;DHT22;7222;57.346;12.150;2023-02-28T16:22:18;5.90;99.90
14277;DHT22;7222;57.346;12.150;2023-02-28T16:24:47;5.60;99.90